Time;durP1;ratioP1;P1;durP2;ratioP2;P2;SDS_P1;SDS_P2;PMS_P1;PMS_P2;Temp;Humidity;BMP_temperature;BMP_pressure;BME280_temperature;BME280_humidity;BME280_pressure;Samples;Min_cycle;Max_cycle;Signal;HPM_P1;HPM_P2
2023/09/20 00:01:32;;;;;;;;;;;18.30;90.30;;;;;;5117707;27;19915;-70
2023/09/20 00:04:00;;;;;;;;;;;18.30;90.30;;;;;;5071270;28;19913;-70
2023/09/20 00:06:26;;;;;;;;;;;18.30;90.30;;;;;;5072627;28;20042;-70
2023/09/20 00:08:52;;;;;;;;;;;18.30;90.40;;;;;;5072207;28;19913;-70
2023/09/20 00:11:18;;;;;;;;;;;18.30;90.30;;;;;;5072139;28;19920;-70
2023/09/20 00:13:44;;;;;;;;;;;18.30;90.30;;;;;;5069092;28;20078;-70
2023/09/20 00:16:10;;;;;;;;;;;18.30;90.30;;;;;;5081179;28;20280;-70
2023/09/20 00:18:36;;;;;;;;;;;18.30;90.40;;;;;;5088315;28;19956;-70
2023/09/20 00:21:02;;;;;;;;;;;18.30;90.40;;;;;;5071352;28;19912;-70
2023/09/20 00:23:28;;;;;;;;;;;18.30;90.40;;;;;;5098677;28;20328;-70
2023/09/20 00:25:53;;;;;;;;;;;18.30;90.40;;;;;;5102577;27;20022;-70
2023/09/20 00:28:19;;;;;;;;;;;18.30;90.40;;;;;;5089779;28;20279;-70
2023/09/20 00:30:47;;;;;;;;;;;18.30;90.40;;;;;;5081500;28;19912;-70
2023/09/20 00:33:13;;;;;;;;;;;18.20;90.40;;;;;;5069581;28;19916;-70
2023/09/20 00:35:39;;;;;;;;;;;18.20;90.40;;;;;;5069763;28;20620;-70
2023/09/20 00:38:05;;;;;;;;;;;18.20;90.50;;;;;;5069089;28;19912;-70
2023/09/20 00:40:32;;;;;;;;;;;18.20;90.40;;;;;;5083944;28;19912;-70
2023/09/20 00:42:58;;;;;;;;;;;18.20;90.40;;;;;;5069530;28;19912;-70
2023/09/20 00:45:23;;;;;;;;;;;18.20;90.50;;;;;;5069101;28;19919;-70
2023/09/20 00:47:51;;;;;;;;;;;18.20;90.40;;;;;;5069592;28;20246;-70
2023/09/20 00:50:17;;;;;;;;;;;18.20;90.40;;;;;;5076944;28;19940;-70
2023/09/20 00:52:44;;;;;;;;;;;18.20;90.50;;;;;;5070077;28;19917;-70
2023/09/20 00:55:15;;;;;;;;;;;18.20;90.50;;;;;;5068698;28;20037;-70
2023/09/20 00:58:04;;;;;;;;;;;18.20;90.50;;;;;;5069357;28;20413;-70
2023/09/20 01:00:34;;;;;;;;;;;18.20;90.50;;;;;;5069093;28;19912;-70
2023/09/20 01:03:00;;;;;;;;;;;18.20;90.50;;;;;;5079085;28;19938;-70
2023/09/20 01:05:26;;;;;;;;;;;18.20;90.50;;;;;;5075087;28;20020;-70
2023/09/20 01:07:54;;;;;;;;;;;18.20;90.60;;;;;;5074228;28;20085;-70
2023/09/20 01:10:24;;;;;;;;;;;18.20;90.60;;;;;;5067573;28;20059;-70
2023/09/20 01:12:54;;;;;;;;;;;18.20;90.60;;;;;;5071098;28;19981;-70
2023/09/20 01:15:23;;;;;;;;;;;18.20;90.60;;;;;;5069111;28;19913;-70
2023/09/20 01:17:49;;;;;;;;;;;18.20;90.60;;;;;;5079058;28;20529;-70
2023/09/20 01:20:19;;;;;;;;;;;18.20;90.60;;;;;;5068928;28;19916;-70
2023/09/20 01:22:45;;;;;;;;;;;18.10;90.50;;;;;;5069572;28;19935;-70
2023/09/20 01:25:16;;;;;;;;;;;18.10;90.60;;;;;;5086793;28;20034;-70
2023/09/20 01:27:42;;;;;;;;;;;18.10;90.60;;;;;;5088826;28;19926;-70
2023/09/20 01:30:08;;;;;;;;;;;18.10;90.60;;;;;;5088390;28;20027;-70
2023/09/20 01:32:36;;;;;;;;;;;18.10;90.70;;;;;;5080727;28;19908;-70
2023/09/20 01:35:02;;;;;;;;;;;18.10;90.70;;;;;;5067259;28;19916;-70
2023/09/20 01:37:28;;;;;;;;;;;18.10;90.70;;;;;;5071975;28;19912;-70
2023/09/20 01:39:54;;;;;;;;;;;18.10;90.70;;;;;;5069034;28;20700;-70
2023/09/20 01:42:21;;;;;;;;;;;18.10;90.70;;;;;;5071082;28;19913;-70
2023/09/20 01:44:49;;;;;;;;;;;18.10;90.70;;;;;;5067796;28;19999;-70
2023/09/20 01:47:15;;;;;;;;;;;18.00;90.70;;;;;;5100828;27;19912;-70
2023/09/20 01:49:41;;;;;;;;;;;18.00;90.70;;;;;;5076077;28;19965;-70
2023/09/20 01:52:06;;;;;;;;;;;18.10;90.80;;;;;;5077050;28;19942;-70
2023/09/20 01:54:32;;;;;;;;;;;18.10;90.80;;;;;;5068974;28;19924;-70
2023/09/20 01:56:58;;;;;;;;;;;18.00;90.80;;;;;;5076534;28;19912;-70
2023/09/20 01:59:24;;;;;;;;;;;18.00;90.80;;;;;;5068161;28;19909;-70
2023/09/20 02:01:50;;;;;;;;;;;18.00;90.80;;;;;;5076447;28;19912;-70
2023/09/20 02:04:15;;;;;;;;;;;18.00;90.80;;;;;;5084144;28;20274;-70
2023/09/20 02:06:41;;;;;;;;;;;18.00;90.80;;;;;;5083618;28;19912;-70
2023/09/20 02:09:08;;;;;;;;;;;18.00;90.90;;;;;;5087788;28;20418;-70
2023/09/20 02:11:33;;;;;;;;;;;17.90;90.90;;;;;;5087984;28;19919;-70
2023/09/20 02:14:00;;;;;;;;;;;18.00;90.90;;;;;;5087476;28;19920;-70
2023/09/20 02:16:25;;;;;;;;;;;18.00;90.90;;;;;;5088066;28;19941;-70
2023/09/20 02:18:52;;;;;;;;;;;17.90;90.90;;;;;;5078704;28;20572;-70
2023/09/20 02:21:18;;;;;;;;;;;17.90;90.90;;;;;;5095515;28;19912;-70
2023/09/20 02:23:44;;;;;;;;;;;17.90;90.90;;;;;;5072721;28;19924;-70
2023/09/20 02:26:10;;;;;;;;;;;17.90;90.90;;;;;;5065862;28;19953;-70
2023/09/20 02:28:35;;;;;;;;;;;17.90;90.90;;;;;;5081342;28;20018;-70
2023/09/20 02:31:01;;;;;;;;;;;17.90;91.00;;;;;;5099344;27;20360;-70
2023/09/20 02:33:28;;;;;;;;;;;17.90;91.00;;;;;;5097838;28;19912;-70
2023/09/20 02:35:54;;;;;;;;;;;17.80;90.90;;;;;;5090081;28;19912;-70
2023/09/20 02:38:21;;;;;;;;;;;17.80;91.00;;;;;;5090714;28;19912;-70
2023/09/20 02:40:46;;;;;;;;;;;17.80;91.00;;;;;;5099570;28;19912;-70
2023/09/20 02:43:13;;;;;;;;;;;17.80;91.00;;;;;;5087153;28;20524;-70
2023/09/20 02:45:39;;;;;;;;;;;17.80;91.00;;;;;;5070777;28;19943;-70
2023/09/20 02:48:06;;;;;;;;;;;17.80;91.10;;;;;;5065539;28;20397;-70
2023/09/20 02:50:32;;;;;;;;;;;17.80;91.10;;;;;;5079865;28;19912;-70
2023/09/20 02:52:58;;;;;;;;;;;17.80;91.10;;;;;;5104546;28;20035;-70
2023/09/20 02:55:24;;;;;;;;;;;17.80;91.10;;;;;;5079344;28;19915;-70
2023/09/20 02:57:51;;;;;;;;;;;17.80;91.10;;;;;;5087543;28;19912;-70
2023/09/20 03:00:21;;;;;;;;;;;17.80;91.10;;;;;;5087755;28;20453;-70
2023/09/20 03:02:49;;;;;;;;;;;17.70;91.10;;;;;;5087942;28;19912;-70
2023/09/20 03:05:21;;;;;;;;;;;17.80;91.20;;;;;;5087730;28;19916;-70
2023/09/20 03:07:49;;;;;;;;;;;17.70;91.10;;;;;;5090281;28;20445;-70
2023/09/20 03:10:15;;;;;;;;;;;17.70;91.20;;;;;;5087689;28;20339;-70
2023/09/20 03:12:43;;;;;;;;;;;17.70;91.10;;;;;;5079397;28;20416;-70
2023/09/20 03:15:21;;;;;;;;;;;17.70;91.20;;;;;;5093910;28;19927;-70
2023/09/20 03:17:48;;;;;;;;;;;17.70;91.20;;;;;;5088650;28;20416;-70
2023/09/20 03:20:22;;;;;;;;;;;17.70;91.20;;;;;;5106882;27;19912;-70
2023/09/20 03:22:49;;;;;;;;;;;17.70;91.20;;;;;;5089723;28;20351;-70
2023/09/20 03:25:17;;;;;;;;;;;17.70;91.20;;;;;;5087460;28;19962;-70
2023/09/20 03:27:43;;;;;;;;;;;17.70;91.30;;;;;;5094871;28;19920;-70
2023/09/20 03:30:11;;;;;;;;;;;17.60;91.20;;;;;;5087126;28;20434;-70
2023/09/20 03:32:37;;;;;;;;;;;17.60;91.60;;;;;;5078128;28;19912;-70
2023/09/20 03:35:02;;;;;;;;;;;17.60;91.30;;;;;;5086984;28;19972;-70
2023/09/20 03:37:32;;;;;;;;;;;17.60;91.30;;;;;;5087436;28;20032;-70
2023/09/20 03:39:58;;;;;;;;;;;17.60;91.30;;;;;;5078935;28;19916;-70
2023/09/20 03:42:24;;;;;;;;;;;17.60;91.30;;;;;;5087710;28;19960;-70
2023/09/20 03:44:50;;;;;;;;;;;17.60;91.30;;;;;;5083899;28;19916;-70
2023/09/20 03:47:16;;;;;;;;;;;17.60;91.30;;;;;;5095757;28;20345;-70
2023/09/20 03:49:42;;;;;;;;;;;17.60;91.40;;;;;;5078673;28;19919;-70
2023/09/20 03:52:07;;;;;;;;;;;17.60;91.30;;;;;;5066999;28;19913;-70
2023/09/20 03:54:33;;;;;;;;;;;17.60;91.30;;;;;;5068481;28;20029;-71
2023/09/20 03:56:59;;;;;;;;;;;17.60;91.40;;;;;;5091944;28;20351;-70
2023/09/20 03:59:26;;;;;;;;;;;17.50;91.40;;;;;;5095815;28;19943;-70
2023/09/20 04:01:52;;;;;;;;;;;17.60;91.40;;;;;;5085204;28;19920;-70
2023/09/20 04:04:18;;;;;;;;;;;17.60;91.40;;;;;;5090991;28;20297;-70
2023/09/20 04:06:46;;;;;;;;;;;17.50;91.40;;;;;;5097547;28;19918;-70
2023/09/20 04:09:11;;;;;;;;;;;17.60;91.50;;;;;;5090581;28;19944;-70
2023/09/20 04:11:38;;;;;;;;;;;17.50;91.40;;;;;;5090790;28;19963;-70
2023/09/20 04:14:04;;;;;;;;;;;17.50;91.50;;;;;;5069909;28;19917;-70
2023/09/20 04:16:30;;;;;;;;;;;17.50;91.50;;;;;;5069309;28;20416;-70
2023/09/20 04:18:55;;;;;;;;;;;17.50;91.50;;;;;;5097229;28;19991;-70
2023/09/20 04:21:23;;;;;;;;;;;17.50;91.50;;;;;;5098128;28;19954;-70
2023/09/20 04:23:49;;;;;;;;;;;17.50;91.50;;;;;;5089714;28;19908;-70
2023/09/20 04:26:14;;;;;;;;;;;17.50;91.50;;;;;;5114741;27;19920;-70
2023/09/20 04:28:40;;;;;;;;;;;17.50;91.60;;;;;;5097530;28;20295;-70
2023/09/20 04:31:05;;;;;;;;;;;17.50;91.60;;;;;;5091417;28;19912;-70
2023/09/20 04:33:32;;;;;;;;;;;17.50;91.70;;;;;;5121581;27;19923;-70
2023/09/20 04:36:00;;;;;;;;;;;17.50;91.50;;;;;;5080828;28;19916;-70
2023/09/20 04:38:26;;;;;;;;;;;17.50;91.60;;;;;;5081884;28;19919;-70
2023/09/20 04:40:51;;;;;;;;;;;17.50;91.60;;;;;;5090452;28;19908;-70
2023/09/20 04:43:17;;;;;;;;;;;17.50;91.60;;;;;;5098158;28;19978;-70
2023/09/20 04:45:43;;;;;;;;;;;17.40;91.60;;;;;;5097241;28;19912;-70
2023/09/20 04:48:08;;;;;;;;;;;17.40;91.60;;;;;;5098382;28;19939;-70
2023/09/20 04:50:34;;;;;;;;;;;17.50;91.60;;;;;;5089872;28;19954;-70
2023/09/20 04:53:00;;;;;;;;;;;17.40;91.60;;;;;;5089760;28;19920;-70
2023/09/20 04:55:27;;;;;;;;;;;17.50;91.60;;;;;;5089836;28;19919;-70
2023/09/20 04:57:52;;;;;;;;;;;17.50;91.70;;;;;;5089852;28;19985;-70
2023/09/20 05:00:26;;;;;;;;;;;17.50;91.80;;;;;;5089947;28;19919;-70
2023/09/20 05:02:52;;;;;;;;;;;17.40;91.60;;;;;;5089685;28;19912;-70
2023/09/20 05:05:17;;;;;;;;;;;17.50;91.70;;;;;;5087830;28;20344;-70
2023/09/20 05:07:44;;;;;;;;;;;17.40;91.70;;;;;;5089859;28;20322;-70
2023/09/20 05:10:09;;;;;;;;;;;17.40;91.60;;;;;;5088823;28;19916;-70
2023/09/20 05:12:35;;;;;;;;;;;17.50;91.80;;;;;;5089873;28;19953;-70
2023/09/20 05:15:00;;;;;;;;;;;17.40;91.90;;;;;;5088353;28;19916;-70
2023/09/20 05:17:27;;;;;;;;;;;17.40;91.70;;;;;;5084618;28;19919;-70
2023/09/20 05:19:52;;;;;;;;;;;17.40;91.70;;;;;;5077695;28;19931;-70
2023/09/20 05:22:19;;;;;;;;;;;17.40;91.70;;;;;;5110321;27;20266;-70
2023/09/20 05:24:44;;;;;;;;;;;17.40;91.80;;;;;;5102983;27;19919;-70
2023/09/20 05:27:10;;;;;;;;;;;17.40;91.90;;;;;;5096668;28;19924;-70
2023/09/20 05:29:35;;;;;;;;;;;17.40;91.80;;;;;;5104318;28;20348;-70
2023/09/20 05:32:01;;;;;;;;;;;17.40;91.80;;;;;;5090342;28;19916;-70
2023/09/20 05:34:26;;;;;;;;;;;17.40;91.80;;;;;;5092708;28;19919;-70
2023/09/20 05:36:53;;;;;;;;;;;17.40;91.80;;;;;;5092303;28;19909;-70
2023/09/20 05:39:18;;;;;;;;;;;17.40;91.90;;;;;;5069569;28;19919;-70
2023/09/20 05:41:44;;;;;;;;;;;17.40;91.80;;;;;;5071866;28;19912;-70
2023/09/20 05:44:13;;;;;;;;;;;17.40;92.00;;;;;;5078861;28;19923;-70
2023/09/20 05:46:38;;;;;;;;;;;17.40;91.80;;;;;;5089358;28;19919;-70
2023/09/20 05:49:04;;;;;;;;;;;17.40;91.80;;;;;;5086984;28;20372;-70
2023/09/20 05:51:30;;;;;;;;;;;17.40;91.90;;;;;;5087191;28;19919;-70
2023/09/20 05:53:55;;;;;;;;;;;17.40;91.80;;;;;;5086397;28;19912;-70
2023/09/20 05:56:21;;;;;;;;;;;17.40;91.80;;;;;;5087116;28;19912;-70
2023/09/20 05:58:46;;;;;;;;;;;17.40;91.90;;;;;;5087983;28;19920;-70
2023/09/20 06:01:13;;;;;;;;;;;17.40;91.90;;;;;;5087019;28;19908;-70
2023/09/20 06:03:39;;;;;;;;;;;17.40;91.90;;;;;;5085701;28;19977;-70
2023/09/20 06:06:07;;;;;;;;;;;17.40;91.90;;;;;;5085041;28;19912;-70
2023/09/20 06:08:33;;;;;;;;;;;17.40;91.80;;;;;;5094289;28;20775;-70
2023/09/20 06:11:04;;;;;;;;;;;17.30;91.80;;;;;;5097309;28;19921;-70
2023/09/20 06:13:29;;;;;;;;;;;17.40;91.80;;;;;;5081962;28;20343;-70
2023/09/20 06:15:55;;;;;;;;;;;17.40;91.90;;;;;;5071954;28;19908;-70
2023/09/20 06:18:20;;;;;;;;;;;17.40;91.90;;;;;;5108881;28;19919;-70
2023/09/20 06:20:50;;;;;;;;;;;17.40;91.80;;;;;;5084276;28;19965;-70
2023/09/20 06:23:19;;;;;;;;;;;17.40;91.80;;;;;;5076072;28;20952;-70
2023/09/20 06:25:47;;;;;;;;;;;17.40;91.90;;;;;;5076299;28;19920;-70
2023/09/20 06:28:14;;;;;;;;;;;17.40;91.90;;;;;;5071222;28;20377;-70
2023/09/20 06:30:41;;;;;;;;;;;17.40;91.80;;;;;;5073094;28;19920;-70
2023/09/20 06:33:08;;;;;;;;;;;17.40;91.80;;;;;;5085817;28;19913;-70
2023/09/20 06:35:38;;;;;;;;;;;17.40;91.80;;;;;;5080114;28;19911;-70
2023/09/20 06:38:04;;;;;;;;;;;17.50;91.90;;;;;;5089491;28;19908;-70
2023/09/20 06:40:39;;;;;;;;;;;17.40;91.90;;;;;;5086215;28;19918;-70
2023/09/20 06:43:06;;;;;;;;;;;17.50;91.90;;;;;;5112207;27;19993;-70
2023/09/20 06:45:32;;;;;;;;;;;17.50;91.90;;;;;;5079579;28;19912;-70
2023/09/20 06:47:58;;;;;;;;;;;17.50;91.90;;;;;;5085609;28;19912;-70
2023/09/20 06:50:23;;;;;;;;;;;17.50;91.90;;;;;;5066413;28;19927;-70
2023/09/20 06:52:51;;;;;;;;;;;17.50;91.90;;;;;;5084307;28;20041;-70
2023/09/20 06:55:18;;;;;;;;;;;17.50;91.80;;;;;;5087619;28;19985;-70
2023/09/20 06:57:47;;;;;;;;;;;17.50;91.80;;;;;;5096488;28;19913;-70
2023/09/20 07:00:18;;;;;;;;;;;17.50;91.80;;;;;;5076099;28;19912;-70
2023/09/20 07:02:46;;;;;;;;;;;17.60;91.90;;;;;;5083463;28;19947;-70
2023/09/20 07:05:13;;;;;;;;;;;17.60;91.90;;;;;;5079230;28;19916;-70
2023/09/20 07:07:39;;;;;;;;;;;17.60;91.90;;;;;;5090903;28;19916;-70
2023/09/20 07:10:05;;;;;;;;;;;17.60;91.90;;;;;;5089246;28;19916;-70
2023/09/20 07:12:34;;;;;;;;;;;17.60;91.80;;;;;;5086473;28;19914;-70
2023/09/20 07:14:59;;;;;;;;;;;17.60;91.90;;;;;;5087357;28;20660;-70
2023/09/20 07:17:25;;;;;;;;;;;17.60;91.90;;;;;;5091256;28;19994;-70
2023/09/20 07:19:51;;;;;;;;;;;17.60;91.90;;;;;;5100008;28;19918;-70
2023/09/20 07:22:17;;;;;;;;;;;17.60;91.90;;;;;;5081559;28;20011;-70
2023/09/20 07:24:45;;;;;;;;;;;17.60;91.90;;;;;;5097514;28;19998;-70
2023/09/20 07:27:11;;;;;;;;;;;17.60;91.90;;;;;;5077067;28;19916;-70
2023/09/20 07:29:39;;;;;;;;;;;17.60;91.90;;;;;;5082166;28;19912;-70
2023/09/20 07:32:05;;;;;;;;;;;17.70;91.90;;;;;;5084323;28;19912;-70
2023/09/20 07:34:33;;;;;;;;;;;17.70;91.90;;;;;;5084702;28;19916;-70
2023/09/20 07:36:59;;;;;;;;;;;17.70;91.90;;;;;;5091452;28;19912;-70
2023/09/20 07:39:25;;;;;;;;;;;17.70;91.90;;;;;;5095879;28;20273;-70
2023/09/20 07:41:51;;;;;;;;;;;17.70;91.90;;;;;;5095122;28;19969;-70
2023/09/20 07:44:17;;;;;;;;;;;17.70;92.00;;;;;;5082378;28;20579;-70
2023/09/20 07:46:43;;;;;;;;;;;17.70;91.90;;;;;;5090025;28;19912;-70
2023/09/20 07:49:09;;;;;;;;;;;17.70;91.90;;;;;;5091169;28;19915;-70
2023/09/20 07:51:39;;;;;;;;;;;17.70;91.90;;;;;;5088815;28;19919;-70
2023/09/20 07:54:06;;;;;;;;;;;17.80;92.10;;;;;;5084401;27;19922;-70
2023/09/20 07:56:32;;;;;;;;;;;17.80;91.80;;;;;;5103461;28;19913;-70
2023/09/20 07:58:58;;;;;;;;;;;17.80;91.80;;;;;;5087439;28;20499;-70
2023/09/20 08:01:24;;;;;;;;;;;17.80;91.80;;;;;;5083759;28;19958;-70
2023/09/20 08:03:53;;;;;;;;;;;17.90;91.80;;;;;;5091623;28;19916;-70
2023/09/20 08:06:19;;;;;;;;;;;17.90;91.80;;;;;;5082795;28;19919;-70
2023/09/20 08:08:45;;;;;;;;;;;17.90;91.80;;;;;;5099546;28;19960;-70
2023/09/20 08:11:11;;;;;;;;;;;17.90;91.80;;;;;;5103986;28;19931;-70
2023/09/20 08:13:36;;;;;;;;;;;18.00;91.80;;;;;;5096928;28;19916;-70
2023/09/20 08:16:02;;;;;;;;;;;18.00;91.80;;;;;;5092510;28;20566;-70
2023/09/20 08:21:12;;;;;;;;;;;18.10;91.90;;;;;;5089122;28;19940;-70
2023/09/20 09:02:16;;;;;;;;;;;19.00;91.30;;;;;;5072635;28;19957;-70
2023/09/20 09:04:44;;;;;;;;;;;19.10;91.20;;;;;;5089212;28;19955;-70
2023/09/20 09:07:10;;;;;;;;;;;19.10;91.50;;;;;;5090188;28;19912;-70
2023/09/20 09:09:36;;;;;;;;;;;19.10;91.20;;;;;;5093046;28;19919;-70
2023/09/20 09:12:01;;;;;;;;;;;19.10;91.10;;;;;;5089121;28;19919;-70
2023/09/20 09:14:27;;;;;;;;;;;19.20;91.20;;;;;;5081068;28;19987;-70
2023/09/20 09:17:00;;;;;;;;;;;19.20;91.10;;;;;;5085124;28;19960;-70
2023/09/20 09:19:25;;;;;;;;;;;19.30;91.40;;;;;;5081434;28;19916;-70
2023/09/20 09:21:51;;;;;;;;;;;19.30;91.30;;;;;;5073327;28;19912;-70
2023/09/20 09:24:17;;;;;;;;;;;19.30;91.40;;;;;;5082287;28;19919;-70
2023/09/20 09:26:45;;;;;;;;;;;19.30;91.30;;;;;;5079515;28;19920;-70
2023/09/20 09:29:16;;;;;;;;;;;19.30;91.10;;;;;;5097240;28;19915;-70
2023/09/20 09:31:46;;;;;;;;;;;19.40;91.30;;;;;;5089018;28;19951;-70
2023/09/20 09:34:12;;;;;;;;;;;19.40;91.30;;;;;;5084780;28;20353;-70
2023/09/20 09:36:38;;;;;;;;;;;19.50;91.30;;;;;;5077378;28;19915;-69
2023/09/20 09:39:14;;;;;;;;;;;19.50;91.40;;;;;;5088352;28;19953;-70
2023/09/20 09:41:46;;;;;;;;;;;19.50;91.30;;;;;;5082820;28;19913;-70
2023/09/20 09:44:11;;;;;;;;;;;19.50;91.10;;;;;;5079184;28;19944;-70
2023/09/20 09:46:38;;;;;;;;;;;19.60;91.00;;;;;;5089276;28;19959;-70
2023/09/20 09:49:11;;;;;;;;;;;19.60;91.20;;;;;;5079664;28;19973;-70
2023/09/20 09:51:50;;;;;;;;;;;19.70;91.10;;;;;;5080489;28;19912;-70
2023/09/20 09:54:20;;;;;;;;;;;19.70;91.10;;;;;;5086945;28;19923;-70
2023/09/20 09:56:45;;;;;;;;;;;19.80;91.10;;;;;;5086932;28;19912;-70
2023/09/20 09:59:11;;;;;;;;;;;19.80;91.00;;;;;;5087566;28;19912;-70
2023/09/20 10:01:38;;;;;;;;;;;19.90;90.80;;;;;;5088060;28;20361;-70
2023/09/20 10:04:10;;;;;;;;;;;19.90;90.70;;;;;;5087451;28;19973;-70
2023/09/20 10:06:39;;;;;;;;;;;19.90;90.80;;;;;;5087652;28;19998;-70
2023/09/20 10:09:09;;;;;;;;;;;20.00;90.90;;;;;;5103327;27;19919;-70
2023/09/20 10:11:35;;;;;;;;;;;20.00;90.90;;;;;;5088543;28;19919;-70
2023/09/20 10:14:01;;;;;;;;;;;20.10;90.70;;;;;;5088019;28;20283;-70
2023/09/20 10:16:28;;;;;;;;;;;20.10;90.80;;;;;;5088542;28;19912;-70
2023/09/20 10:18:53;;;;;;;;;;;20.10;90.80;;;;;;5088237;28;20257;-70
2023/09/20 10:21:23;;;;;;;;;;;20.20;90.70;;;;;;5079708;28;20052;-70
2023/09/20 10:23:52;;;;;;;;;;;20.20;90.70;;;;;;5074737;28;19916;-70
2023/09/20 10:26:18;;;;;;;;;;;20.20;90.70;;;;;;5103244;28;19926;-70
2023/09/20 10:28:44;;;;;;;;;;;20.20;90.90;;;;;;5071809;28;19909;-70
2023/09/20 10:31:16;;;;;;;;;;;20.20;91.00;;;;;;5080480;28;19989;-70
2023/09/20 10:33:51;;;;;;;;;;;20.20;90.70;;;;;;5083818;28;20329;-70
2023/09/20 10:36:20;;;;;;;;;;;20.30;90.90;;;;;;5095957;28;19912;-70
2023/09/20 10:38:46;;;;;;;;;;;20.30;90.90;;;;;;5086631;28;20650;-70
2023/09/20 10:41:12;;;;;;;;;;;20.30;90.80;;;;;;5080031;28;19951;-70
2023/09/20 10:43:38;;;;;;;;;;;20.30;90.70;;;;;;5083569;28;19981;-70
2023/09/20 10:46:07;;;;;;;;;;;20.40;90.80;;;;;;5101592;27;19908;-70
2023/09/20 10:48:32;;;;;;;;;;;20.40;90.90;;;;;;5079380;28;20003;-70
2023/09/20 10:50:58;;;;;;;;;;;20.40;91.00;;;;;;5076168;28;20007;-70
2023/09/20 10:53:47;;;;;;;;;;;20.40;91.00;;;;;;5078915;28;19950;-70
2023/09/20 10:56:32;;;;;;;;;;;20.50;90.70;;;;;;5081515;28;19946;-70
2023/09/20 10:58:59;;;;;;;;;;;20.50;91.00;;;;;;5086697;28;19916;-70
2023/09/20 11:01:25;;;;;;;;;;;20.60;90.90;;;;;;5087135;28;19912;-70
2023/09/20 11:03:51;;;;;;;;;;;20.60;90.90;;;;;;5086964;28;19964;-70
2023/09/20 11:06:16;;;;;;;;;;;20.60;90.90;;;;;;5087128;28;19916;-70
2023/09/20 11:08:43;;;;;;;;;;;20.60;90.90;;;;;;5079664;28;20000;-69
2023/09/20 11:11:14;;;;;;;;;;;20.70;90.90;;;;;;5091640;28;20320;-70
2023/09/20 11:13:44;;;;;;;;;;;20.70;90.80;;;;;;5108656;27;20062;-69
2023/09/20 11:16:10;;;;;;;;;;;20.80;90.90;;;;;;5088564;28;19912;-70
2023/09/20 11:18:38;;;;;;;;;;;20.80;90.70;;;;;;5091069;28;19919;-69
2023/09/20 11:21:04;;;;;;;;;;;20.80;90.70;;;;;;5091550;28;19908;-70
2023/09/20 11:23:30;;;;;;;;;;;20.80;90.90;;;;;;5098250;28;20455;-70
2023/09/20 11:25:58;;;;;;;;;;;20.80;90.80;;;;;;5090348;28;20279;-70
2023/09/20 11:28:24;;;;;;;;;;;20.90;90.90;;;;;;5090323;28;21351;-70
2023/09/20 11:30:51;;;;;;;;;;;20.90;91.20;;;;;;5093743;28;19995;-70
2023/09/20 11:33:29;;;;;;;;;;;20.90;90.80;;;;;;5082565;28;20089;-70
2023/09/20 11:35:55;;;;;;;;;;;20.90;90.80;;;;;;5091917;28;20012;-70
2023/09/20 11:38:21;;;;;;;;;;;21.00;90.80;;;;;;5083199;28;20352;-69
2023/09/20 11:40:47;;;;;;;;;;;21.10;90.80;;;;;;5091445;28;20538;-69
2023/09/20 11:43:17;;;;;;;;;;;21.20;90.70;;;;;;5090949;28;19912;-70
2023/09/20 11:45:46;;;;;;;;;;;21.10;90.60;;;;;;5091501;28;20432;-70
2023/09/20 11:48:13;;;;;;;;;;;21.20;90.80;;;;;;5091170;28;19964;-70
2023/09/20 11:50:45;;;;;;;;;;;21.20;90.70;;;;;;5077127;28;19915;-70
2023/09/20 11:53:18;;;;;;;;;;;21.20;90.70;;;;;;5079007;28;20036;-70
2023/09/20 11:55:44;;;;;;;;;;;21.30;90.40;;;;;;5071231;28;19919;-70
2023/09/20 11:58:10;;;;;;;;;;;21.30;90.40;;;;;;5072730;28;19912;-70
2023/09/20 12:00:36;;;;;;;;;;;21.30;90.40;;;;;;5082805;28;19915;-70
2023/09/20 12:03:03;;;;;;;;;;;21.40;90.50;;;;;;5090916;28;19964;-70
2023/09/20 12:05:28;;;;;;;;;;;21.50;90.40;;;;;;5091093;28;19947;-70
2023/09/20 12:07:56;;;;;;;;;;;21.60;90.40;;;;;;5086524;28;20011;-70
2023/09/20 12:10:21;;;;;;;;;;;21.60;90.30;;;;;;5077200;28;20416;-70
2023/09/20 12:12:47;;;;;;;;;;;21.70;89.80;;;;;;5091889;28;19957;-70
2023/09/20 12:15:13;;;;;;;;;;;21.70;90.10;;;;;;5080982;28;19940;-70
2023/09/20 12:17:39;;;;;;;;;;;21.80;90.00;;;;;;5110631;27;19948;-69
2023/09/20 12:20:06;;;;;;;;;;;21.80;89.20;;;;;;5078888;28;20310;-70
2023/09/20 12:22:31;;;;;;;;;;;21.80;89.50;;;;;;5084046;28;19921;-70
2023/09/20 12:24:57;;;;;;;;;;;21.80;90.00;;;;;;5096647;28;19969;-70
2023/09/20 12:27:23;;;;;;;;;;;21.90;89.90;;;;;;5081502;28;20317;-70
2023/09/20 12:29:49;;;;;;;;;;;21.90;89.40;;;;;;5096926;28;20634;-70
2023/09/20 12:32:14;;;;;;;;;;;21.90;89.70;;;;;;5081957;28;19957;-70
2023/09/20 12:34:40;;;;;;;;;;;21.90;89.40;;;;;;5089617;28;19916;-70
2023/09/20 12:37:05;;;;;;;;;;;22.00;89.20;;;;;;5088257;28;19912;-70
2023/09/20 12:39:31;;;;;;;;;;;22.00;89.50;;;;;;5069674;28;19952;-70
2023/09/20 12:41:56;;;;;;;;;;;22.10;89.40;;;;;;5077624;28;20392;-70
2023/09/20 12:44:22;;;;;;;;;;;22.10;89.70;;;;;;5080035;28;20558;-70
2023/09/20 12:46:48;;;;;;;;;;;22.10;89.50;;;;;;5089341;28;19919;-70
2023/09/20 12:49:13;;;;;;;;;;;22.10;89.30;;;;;;5089241;28;19912;-70
2023/09/20 12:51:39;;;;;;;;;;;22.20;89.40;;;;;;5089308;28;19923;-70
2023/09/20 12:54:06;;;;;;;;;;;22.20;89.40;;;;;;5088600;28;20288;-70
2023/09/20 12:56:31;;;;;;;;;;;22.30;89.60;;;;;;5087296;28;20367;-70
2023/09/20 12:58:57;;;;;;;;;;;22.40;88.50;;;;;;5089034;28;19916;-69
2023/09/20 13:01:22;;;;;;;;;;;22.50;88.60;;;;;;5077278;28;19943;-70
2023/09/20 13:03:48;;;;;;;;;;;22.60;88.90;;;;;;5077352;28;19998;-69
2023/09/20 13:06:14;;;;;;;;;;;22.70;88.20;;;;;;5069820;28;19916;-69
2023/09/20 13:08:40;;;;;;;;;;;22.80;88.60;;;;;;5089101;28;20249;-69
2023/09/20 13:11:07;;;;;;;;;;;22.80;87.80;;;;;;5080567;28;19913;-69
2023/09/20 13:13:34;;;;;;;;;;;22.80;88.40;;;;;;5084033;28;19939;-70
2023/09/20 13:16:00;;;;;;;;;;;22.80;87.90;;;;;;5075079;28;19912;-70
2023/09/20 13:18:25;;;;;;;;;;;22.90;88.40;;;;;;5077323;28;19916;-70
2023/09/20 13:20:52;;;;;;;;;;;23.00;88.50;;;;;;5069735;28;19912;-70
2023/09/20 13:23:17;;;;;;;;;;;23.00;87.50;;;;;;5071674;28;19912;-70
2023/09/20 13:25:43;;;;;;;;;;;23.10;87.50;;;;;;5075607;28;19912;-70
2023/09/20 13:28:09;;;;;;;;;;;23.20;87.50;;;;;;5079341;28;20342;-70
2023/09/20 13:30:35;;;;;;;;;;;23.20;86.80;;;;;;5073854;28;19935;-70
2023/09/20 13:33:01;;;;;;;;;;;23.20;87.70;;;;;;5089221;28;20276;-70
2023/09/20 13:35:30;;;;;;;;;;;23.20;87.90;;;;;;5084266;28;20122;-70
2023/09/20 13:37:56;;;;;;;;;;;23.20;86.80;;;;;;5069324;28;19974;-70
2023/09/20 13:40:23;;;;;;;;;;;23.20;88.40;;;;;;5076939;28;20334;-70
2023/09/20 13:42:49;;;;;;;;;;;23.10;87.50;;;;;;5068580;28;19966;-70
2023/09/20 13:45:15;;;;;;;;;;;23.10;88.40;;;;;;5100793;27;19913;-70
2023/09/20 13:47:41;;;;;;;;;;;23.20;89.10;;;;;;5115761;27;20410;-70
2023/09/20 13:50:08;;;;;;;;;;;23.20;88.20;;;;;;5070762;28;19913;-70
2023/09/20 13:52:34;;;;;;;;;;;23.20;88.60;;;;;;5077272;28;19909;-70
2023/09/20 13:55:00;;;;;;;;;;;23.20;88.20;;;;;;5079236;28;20544;-70
2023/09/20 13:57:25;;;;;;;;;;;23.20;88.30;;;;;;5068759;28;20011;-70
2023/09/20 13:59:55;;;;;;;;;;;23.20;88.30;;;;;;5075999;28;20031;-70
2023/09/20 14:02:20;;;;;;;;;;;23.20;88.30;;;;;;5085594;28;19921;-70
2023/09/20 14:04:46;;;;;;;;;;;23.20;88.40;;;;;;5068532;28;19908;-70
2023/09/20 14:07:12;;;;;;;;;;;23.20;88.30;;;;;;5107813;27;19912;-70
2023/09/20 14:09:41;;;;;;;;;;;23.20;87.30;;;;;;5101110;28;19947;-70
2023/09/20 14:12:07;;;;;;;;;;;23.30;87.80;;;;;;5068289;28;19913;-70
2023/09/20 14:14:33;;;;;;;;;;;23.40;87.80;;;;;;5068353;28;19947;-70
2023/09/20 14:16:59;;;;;;;;;;;23.40;87.90;;;;;;5085306;28;19908;-70
2023/09/20 14:19:24;;;;;;;;;;;23.40;87.80;;;;;;5080369;28;19912;-70
2023/09/20 14:21:50;;;;;;;;;;;23.50;87.90;;;;;;5088411;28;19934;-70
2023/09/20 14:24:15;;;;;;;;;;;23.50;87.60;;;;;;5087961;28;20007;-70
2023/09/20 14:26:41;;;;;;;;;;;23.50;87.50;;;;;;5080009;28;19923;-70
2023/09/20 14:29:10;;;;;;;;;;;23.50;87.60;;;;;;5078978;28;19996;-70
2023/09/20 14:31:37;;;;;;;;;;;23.50;87.40;;;;;;5081919;28;19908;-70
2023/09/20 14:34:03;;;;;;;;;;;23.60;86.70;;;;;;5070741;28;19917;-70
2023/09/20 14:36:29;;;;;;;;;;;23.60;87.40;;;;;;5068395;28;19912;-70
2023/09/20 14:38:56;;;;;;;;;;;23.60;87.40;;;;;;5076289;28;19996;-70
2023/09/20 14:41:22;;;;;;;;;;;23.60;87.20;;;;;;5067914;28;19912;-70
2023/09/20 14:43:47;;;;;;;;;;;23.60;86.70;;;;;;5067421;28;19958;-70
2023/09/20 14:46:13;;;;;;;;;;;23.70;86.50;;;;;;5069552;28;19915;-70
2023/09/20 14:48:39;;;;;;;;;;;23.70;87.10;;;;;;5073059;28;20485;-70
2023/09/20 14:51:05;;;;;;;;;;;23.80;86.40;;;;;;5076317;28;20429;-70
2023/09/20 14:53:32;;;;;;;;;;;23.90;86.30;;;;;;5070834;28;19913;-70
2023/09/20 14:55:57;;;;;;;;;;;24.00;86.10;;;;;;5078835;28;19912;-70